createdAt,value
2017-08-01T00:00:06.990Z,0
2017-08-01T00:01:06.934Z,0
2017-08-01T00:02:06.948Z,0
2017-08-01T00:03:07.013Z,0
2017-08-01T00:04:07.021Z,0
2017-08-01T00:05:07.026Z,0
2017-08-01T00:06:06.917Z,0
2017-08-01T00:07:06.943Z,0
2017-08-01T00:08:06.946Z,0
2017-08-01T00:09:06.973Z,0
2017-08-01T00:10:06.949Z,0
2017-08-01T00:11:06.916Z,0
2017-08-01T00:12:06.976Z,0
2017-08-01T00:13:06.950Z,0
2017-08-01T00:14:06.950Z,0
2017-08-01T00:15:06.984Z,0
2017-08-01T00:16:06.944Z,0
2017-08-01T00:17:06.947Z,0
2017-08-01T00:18:06.912Z,0
2017-08-01T00:19:06.942Z,0
2017-08-01T00:20:06.980Z,0
2017-08-01T00:21:06.977Z,0
2017-08-01T00:22:06.945Z,0
2017-08-01T00:23:06.981Z,0
2017-08-01T00:24:06.974Z,0
2017-08-01T00:25:06.878Z,0
2017-08-01T00:26:06.880Z,0
2017-08-01T00:27:06.884Z,0
2017-08-01T00:28:06.886Z,0
2017-08-01T00:29:06.883Z,0
2017-08-01T00:30:06.887Z,0
2017-08-01T00:31:06.881Z,0
2017-08-01T00:32:06.881Z,0
2017-08-01T00:33:06.881Z,0
2017-08-01T00:34:07.078Z,0
2017-08-01T00:35:06.961Z,0
2017-08-01T00:36:06.997Z,0
2017-08-01T00:37:06.932Z,0
2017-08-01T00:38:06.958Z,0
2017-08-01T00:39:06.991Z,0
2017-08-01T00:40:06.997Z,0
2017-08-01T00:41:06.931Z,0
2017-08-01T00:42:06.959Z,0
2017-08-01T00:43:06.937Z,0
2017-08-01T00:44:07.001Z,0
2017-08-01T00:45:06.980Z,0
2017-08-01T00:46:06.997Z,0
2017-08-01T00:47:07.001Z,0
2017-08-01T00:48:06.937Z,0
2017-08-01T00:49:06.967Z,0
2017-08-01T00:50:07.009Z,0
2017-08-01T00:51:07.002Z,0
2017-08-01T00:52:06.937Z,0
2017-08-01T00:53:06.938Z,0
2017-08-01T00:54:07.012Z,0
2017-08-01T00:55:06.978Z,0
2017-08-01T00:56:06.973Z,0
2017-08-01T00:57:07.043Z,0
2017-08-01T00:58:06.953Z,0
2017-08-01T00:59:07.012Z,0
2017-08-01T01:00:07.007Z,0
2017-08-01T01:01:07.043Z,0
2017-08-01T01:02:06.956Z,0
2017-08-01T01:03:06.959Z,0
2017-08-01T01:04:06.965Z,0
2017-08-01T01:05:07.017Z,0
2017-08-01T01:06:06.948Z,0
2017-08-01T01:07:07.006Z,0
2017-08-01T01:08:06.896Z,0
2017-08-01T01:09:06.893Z,0
2017-08-01T01:10:06.974Z,0
2017-08-01T01:11:06.941Z,0
2017-08-01T01:12:06.899Z,0
2017-08-01T01:13:07.008Z,0
2017-08-01T01:14:07.012Z,0
2017-08-01T01:15:06.959Z,0
2017-08-01T01:16:07.027Z,0
2017-08-01T01:17:06.987Z,0
2017-08-01T01:18:07.061Z,0
2017-08-01T01:19:07.048Z,0
2017-08-01T01:20:07.035Z,0
2017-08-01T01:21:07.000Z,0
2017-08-01T01:22:06.965Z,0
2017-08-01T01:23:06.987Z,0
2017-08-01T01:24:06.985Z,0
2017-08-01T01:25:07.010Z,0
2017-08-01T01:26:07.015Z,0
2017-08-01T01:27:06.964Z,0
2017-08-01T01:28:06.945Z,0
2017-08-01T01:29:06.963Z,0
2017-08-01T01:30:06.967Z,0
2017-08-01T01:31:06.906Z,0
2017-08-01T01:32:06.983Z,0
2017-08-01T01:33:06.968Z,0
2017-08-01T01:34:06.951Z,0
2017-08-01T01:35:06.995Z,0
2017-08-01T01:36:07.018Z,0
2017-08-01T01:37:06.956Z,0
2017-08-01T01:38:07.139Z,0
2017-08-01T01:39:06.971Z,0
2017-08-01T01:40:06.989Z,0
2017-08-01T01:41:06.911Z,0
2017-08-01T01:42:06.909Z,0
2017-08-01T01:43:06.914Z,0
2017-08-01T01:44:06.993Z,0
2017-08-01T01:45:06.972Z,0
2017-08-01T01:46:07.004Z,0
2017-08-01T01:47:07.000Z,0
2017-08-01T01:48:06.985Z,0
2017-08-01T01:49:06.978Z,0
2017-08-01T01:50:06.982Z,0
2017-08-01T01:51:06.978Z,0
2017-08-01T01:52:06.952Z,0
2017-08-01T01:53:07.053Z,0
2017-08-01T01:54:06.995Z,0
2017-08-01T01:55:06.926Z,0
2017-08-01T01:56:06.971Z,0
2017-08-01T01:57:07.040Z,0
2017-08-01T01:58:06.997Z,0
2017-08-01T01:59:06.974Z,0
2017-08-01T02:00:07.040Z,0
2017-08-01T02:01:06.972Z,0
2017-08-01T02:02:06.989Z,0
2017-08-01T02:03:07.039Z,0
2017-08-01T02:04:07.080Z,0
2017-08-01T02:05:07.051Z,0
2017-08-01T02:06:06.989Z,0
2017-08-01T02:07:07.030Z,0
2017-08-01T02:08:07.060Z,0
2017-08-01T02:09:06.991Z,0
2017-08-01T02:10:07.095Z,0
2017-08-01T02:11:07.084Z,0
2017-08-01T02:12:07.085Z,0
2017-08-01T02:13:07.029Z,0
2017-08-01T02:14:07.004Z,0
2017-08-01T02:15:07.023Z,0
2017-08-01T02:16:07.032Z,0
2017-08-01T02:17:07.089Z,0
2017-08-01T02:18:07.029Z,0
2017-08-01T02:19:07.003Z,0
2017-08-01T02:20:07.091Z,0
2017-08-01T02:21:07.072Z,0
2017-08-01T02:22:07.035Z,0
2017-08-01T02:23:07.058Z,0
2017-08-01T02:24:07.047Z,0
2017-08-01T02:25:07.067Z,0
2017-08-01T02:26:07.003Z,0
2017-08-01T02:27:07.066Z,0
2017-08-01T02:28:07.033Z,0
2017-08-01T02:29:07.009Z,0
2017-08-01T02:30:06.972Z,0
2017-08-01T02:31:07.025Z,0
2017-08-01T02:32:07.021Z,0
2017-08-01T02:33:06.978Z,0
2017-08-01T02:34:07.105Z,0
2017-08-01T02:35:07.015Z,0
2017-08-01T02:36:07.063Z,0
2017-08-01T02:37:07.005Z,0
2017-08-01T02:38:07.021Z,0
2017-08-01T02:39:07.010Z,0
2017-08-01T02:40:07.105Z,0
2017-08-01T02:41:07.062Z,0
2017-08-01T02:42:07.108Z,0
2017-08-01T02:43:07.051Z,0
2017-08-01T02:44:07.067Z,0
2017-08-01T02:45:07.071Z,0
2017-08-01T02:46:07.014Z,0
2017-08-01T02:47:07.042Z,0
2017-08-01T02:48:07.059Z,0
2017-08-01T02:49:07.066Z,0
2017-08-01T02:50:07.036Z,0
2017-08-01T02:51:07.066Z,0
2017-08-01T02:52:07.050Z,0
2017-08-01T02:53:07.044Z,0
2017-08-01T02:54:07.029Z,0
2017-08-01T02:55:06.999Z,0
2017-08-01T02:56:07.069Z,0
2017-08-01T02:57:06.953Z,0
2017-08-01T02:58:07.071Z,0
2017-08-01T02:59:06.956Z,0
2017-08-01T03:00:07.162Z,0
2017-08-01T03:01:07.026Z,0
2017-08-01T03:02:07.081Z,0
2017-08-01T03:03:07.035Z,0
2017-08-01T03:04:07.047Z,0
2017-08-01T03:05:07.010Z,0
2017-08-01T03:06:07.077Z,0
2017-08-01T03:07:06.964Z,0
2017-08-01T03:08:07.038Z,0
2017-08-01T03:09:07.020Z,0
2017-08-01T03:10:07.074Z,0
2017-08-01T03:11:07.024Z,0
2017-08-01T03:12:07.043Z,0
2017-08-01T03:13:06.968Z,0
2017-08-01T03:14:07.125Z,0
2017-08-01T03:15:07.061Z,0
2017-08-01T03:16:07.034Z,0
2017-08-01T03:17:07.041Z,0
2017-08-01T03:18:07.064Z,0
2017-08-01T03:19:07.131Z,0
2017-08-01T03:20:07.093Z,0
2017-08-01T03:21:07.120Z,0
2017-08-01T03:22:07.037Z,0
2017-08-01T03:23:07.102Z,0
2017-08-01T03:24:07.127Z,0
2017-08-01T03:25:07.096Z,0
2017-08-01T03:26:07.060Z,0
2017-08-01T03:27:07.036Z,0
2017-08-01T03:28:07.062Z,0
2017-08-01T03:29:07.097Z,0
2017-08-01T03:30:07.101Z,0
2017-08-01T03:31:07.096Z,0
2017-08-01T03:32:07.033Z,0
2017-08-01T03:33:07.101Z,0
2017-08-01T03:34:07.062Z,0
2017-08-01T03:35:07.111Z,0
2017-08-01T03:36:07.053Z,0
2017-08-01T03:37:07.073Z,0
2017-08-01T03:38:07.133Z,0
2017-08-01T03:39:07.111Z,0
2017-08-01T03:40:07.050Z,0
2017-08-01T03:41:07.102Z,0
2017-08-01T03:42:07.112Z,0
2017-08-01T03:43:07.077Z,0
2017-08-01T03:44:07.056Z,5
2017-08-01T03:45:07.020Z,5
2017-08-01T03:46:07.054Z,5
2017-08-01T03:47:07.192Z,5
2017-08-01T03:48:07.058Z,5
2017-08-01T03:49:07.067Z,11
2017-08-01T03:50:07.070Z,11
2017-08-01T03:51:07.057Z,11
2017-08-01T03:52:07.037Z,16
2017-08-01T03:53:07.074Z,16
2017-08-01T03:54:07.076Z,22
2017-08-01T03:55:07.112Z,28
2017-08-01T03:56:07.047Z,28
2017-08-01T03:57:07.113Z,33
2017-08-01T03:58:07.115Z,33
2017-08-01T03:59:07.116Z,33
2017-08-01T04:00:07.050Z,33
2017-08-01T04:01:07.078Z,33
2017-08-01T04:02:07.114Z,33
2017-08-01T04:03:07.114Z,33
2017-08-01T04:04:07.115Z,33
2017-08-01T04:05:07.083Z,39
2017-08-01T04:06:07.093Z,39
2017-08-01T04:07:07.160Z,45
2017-08-01T04:08:07.153Z,50
2017-08-01T04:09:07.061Z,50
2017-08-01T04:10:07.105Z,56
2017-08-01T04:11:07.099Z,56
2017-08-01T04:12:07.070Z,61
2017-08-01T04:13:07.069Z,67
2017-08-01T04:14:07.165Z,67
2017-08-01T04:15:07.084Z,73
2017-08-01T04:16:07.073Z,73
2017-08-01T04:17:07.078Z,73
2017-08-01T04:18:07.088Z,67
2017-08-01T04:19:07.089Z,67
2017-08-01T04:20:07.138Z,67
2017-08-01T04:21:07.080Z,67
2017-08-01T04:22:07.093Z,73
2017-08-01T04:23:07.044Z,84
2017-08-01T04:24:07.088Z,95
2017-08-01T04:25:07.109Z,106
2017-08-01T04:26:07.105Z,118
2017-08-01T04:27:07.069Z,123
2017-08-01T04:28:07.127Z,129
2017-08-01T04:29:07.143Z,135
2017-08-01T04:30:07.139Z,140
2017-08-01T04:31:07.140Z,146
2017-08-01T04:32:07.170Z,146
2017-08-01T04:33:07.075Z,146
2017-08-01T04:34:07.134Z,135
2017-08-01T04:35:07.110Z,118
2017-08-01T04:36:07.128Z,106
2017-08-01T04:37:07.159Z,90
2017-08-01T04:38:07.082Z,73
2017-08-01T04:39:07.142Z,61
2017-08-01T04:40:07.171Z,50
2017-08-01T04:41:07.142Z,39
2017-08-01T04:42:07.114Z,33
2017-08-01T04:43:07.149Z,28
2017-08-01T04:44:07.080Z,28
2017-08-01T04:45:07.078Z,28
2017-08-01T04:46:07.074Z,22
2017-08-01T04:47:07.105Z,22
2017-08-01T04:48:07.103Z,28
2017-08-01T04:49:07.112Z,28
2017-08-01T04:50:07.103Z,33
2017-08-01T04:51:07.107Z,39
2017-08-01T04:52:07.107Z,45
2017-08-01T04:53:07.110Z,45
2017-08-01T04:54:07.088Z,50
2017-08-01T04:55:07.143Z,50
2017-08-01T04:56:07.091Z,50
2017-08-01T04:57:07.086Z,50
2017-08-01T04:58:07.179Z,56
2017-08-01T04:59:07.129Z,61
2017-08-01T05:00:07.235Z,78
2017-08-01T05:01:07.157Z,90
2017-08-01T05:02:07.121Z,90
2017-08-01T05:03:07.180Z,95
2017-08-01T05:04:07.127Z,101
2017-08-01T05:05:07.091Z,95
2017-08-01T05:06:07.092Z,101
2017-08-01T05:07:07.180Z,106
2017-08-01T05:08:07.179Z,118
2017-08-01T05:09:07.195Z,135
2017-08-01T05:10:07.122Z,151
2017-08-01T05:11:07.147Z,168
2017-08-01T05:12:07.151Z,180
2017-08-01T05:13:07.130Z,174
2017-08-01T05:14:07.102Z,163
2017-08-01T05:15:07.137Z,157
2017-08-01T05:16:07.153Z,146
2017-08-01T05:17:07.098Z,140
2017-08-01T05:18:07.131Z,135
2017-08-01T05:19:07.109Z,146
2017-08-01T05:20:07.102Z,163
2017-08-01T05:21:07.206Z,185
2017-08-01T05:22:07.132Z,230
2017-08-01T05:23:07.133Z,264
2017-08-01T05:24:07.105Z,298
2017-08-01T05:25:07.166Z,298
2017-08-01T05:26:07.105Z,281
2017-08-01T05:27:07.137Z,292
2017-08-01T05:28:07.172Z,309
2017-08-01T05:29:07.109Z,320
2017-08-01T05:30:07.106Z,348
2017-08-01T05:31:07.108Z,388
2017-08-01T05:32:07.201Z,421
2017-08-01T05:33:07.186Z,450
2017-08-01T05:34:07.197Z,489
2017-08-01T05:35:07.110Z,545
2017-08-01T05:36:07.145Z,579
2017-08-01T05:37:07.177Z,635
2017-08-01T05:38:07.135Z,697
2017-08-01T05:39:07.207Z,776
2017-08-01T05:40:07.146Z,832
2017-08-01T05:41:07.113Z,928
2017-08-01T05:42:07.109Z,984
2017-08-01T05:43:07.147Z,984
2017-08-01T05:44:07.145Z,990
2017-08-01T05:45:07.141Z,973
2017-08-01T05:46:07.154Z,956
2017-08-01T05:47:07.204Z,945
2017-08-01T05:48:07.181Z,945
2017-08-01T05:49:07.121Z,950
2017-08-01T05:50:07.191Z,928
2017-08-01T05:51:07.119Z,905
2017-08-01T05:52:07.224Z,888
2017-08-01T05:53:07.185Z,1080
2017-08-01T05:54:07.149Z,1434
2017-08-01T05:55:07.192Z,911
2017-08-01T05:56:07.190Z,916
2017-08-01T05:57:07.161Z,1524
2017-08-01T05:58:07.182Z,1355
2017-08-01T05:59:07.163Z,1383
2017-08-01T06:00:07.127Z,1608
2017-08-01T06:01:07.216Z,1530
2017-08-01T06:02:07.193Z,1288
2017-08-01T06:03:07.132Z,1063
2017-08-01T06:04:07.193Z,967
2017-08-01T06:05:07.189Z,1186
2017-08-01T06:06:07.227Z,1344
2017-08-01T06:07:07.223Z,1372
2017-08-01T06:08:07.156Z,888
2017-08-01T06:09:07.224Z,815
2017-08-01T06:10:07.158Z,877
2017-08-01T06:11:07.159Z,905
2017-08-01T06:12:07.218Z,826
2017-08-01T06:13:07.165Z,849
2017-08-01T06:14:07.153Z,922
2017-08-01T06:15:07.152Z,928
2017-08-01T06:16:07.171Z,950
2017-08-01T06:17:07.132Z,984
2017-08-01T06:18:07.222Z,1006
2017-08-01T06:19:07.234Z,1018
2017-08-01T06:20:07.134Z,1035
2017-08-01T06:21:07.173Z,1080
2017-08-01T06:22:07.229Z,1175
2017-08-01T06:23:07.231Z,1462
2017-08-01T06:24:07.169Z,1642
2017-08-01T06:25:07.174Z,1181
2017-08-01T06:26:07.273Z,1085
2017-08-01T06:27:07.142Z,1046
2017-08-01T06:28:07.139Z,1057
2017-08-01T06:29:07.216Z,1192
2017-08-01T06:30:07.213Z,1091
2017-08-01T06:31:07.215Z,1665
2017-08-01T06:32:07.142Z,1603
2017-08-01T06:33:07.176Z,1102
2017-08-01T06:34:07.214Z,1130
2017-08-01T06:35:07.201Z,1175
2017-08-01T06:36:07.165Z,1175
2017-08-01T06:37:07.248Z,1271
2017-08-01T06:38:07.146Z,1569
2017-08-01T06:39:07.232Z,1974
2017-08-01T06:40:07.183Z,1636
2017-08-01T06:41:07.146Z,1378
2017-08-01T06:42:07.233Z,1305
2017-08-01T06:43:07.187Z,1271
2017-08-01T06:44:07.216Z,1271
2017-08-01T06:45:07.242Z,1265
2017-08-01T06:46:07.186Z,1254
2017-08-01T06:47:07.186Z,1282
2017-08-01T06:48:07.155Z,1293
2017-08-01T06:49:07.149Z,1383
2017-08-01T06:50:07.245Z,1282
2017-08-01T06:51:07.251Z,1310
2017-08-01T06:52:07.191Z,1299
2017-08-01T06:53:07.212Z,1293
2017-08-01T06:54:07.195Z,1327
2017-08-01T06:55:07.231Z,1350
2017-08-01T06:56:07.266Z,1378
2017-08-01T06:57:07.218Z,1445
2017-08-01T06:58:07.154Z,1580
2017-08-01T06:59:07.217Z,2205
2017-08-01T07:00:07.197Z,1473
2017-08-01T07:01:07.199Z,1479
2017-08-01T07:02:07.248Z,1518
2017-08-01T07:03:07.180Z,1535
2017-08-01T07:04:07.249Z,1575
2017-08-01T07:05:07.219Z,1687
2017-08-01T07:06:07.218Z,2458
2017-08-01T07:07:07.188Z,1777
2017-08-01T07:08:07.158Z,2109
2017-08-01T07:09:07.260Z,1923
2017-08-01T07:10:07.192Z,1631
2017-08-01T07:11:07.164Z,1575
2017-08-01T07:12:07.226Z,2250
2017-08-01T07:13:07.158Z,1800
2017-08-01T07:14:07.225Z,1485
2017-08-01T07:15:07.234Z,1513
2017-08-01T07:16:07.228Z,1333
2017-08-01T07:17:07.202Z,1400
2017-08-01T07:18:07.210Z,1642
2017-08-01T07:19:07.267Z,2643
2017-08-01T07:20:07.273Z,2711
2017-08-01T07:21:07.176Z,2379
2017-08-01T07:22:07.176Z,1563
2017-08-01T07:23:07.261Z,2070
2017-08-01T07:24:07.268Z,3217
2017-08-01T07:25:07.301Z,1912
2017-08-01T07:26:07.176Z,1912
2017-08-01T07:27:07.175Z,1642
2017-08-01T07:28:07.199Z,1918
2017-08-01T07:29:07.265Z,1428
2017-08-01T07:30:07.229Z,1153
2017-08-01T07:31:07.178Z,1102
2017-08-01T07:32:07.171Z,1951
2017-08-01T07:33:07.216Z,2497
2017-08-01T07:34:07.243Z,2424
2017-08-01T07:35:07.270Z,2891
2017-08-01T07:36:07.180Z,3071
2017-08-01T07:37:07.208Z,1766
2017-08-01T07:38:07.183Z,2795
2017-08-01T07:39:07.205Z,2880
2017-08-01T07:40:07.268Z,3206
2017-08-01T07:41:07.251Z,2278
2017-08-01T07:42:07.270Z,3414
2017-08-01T07:43:07.265Z,2497
2017-08-01T07:44:07.219Z,1878
2017-08-01T07:45:07.218Z,1929
2017-08-01T07:46:07.241Z,1760
2017-08-01T07:47:07.188Z,1710
2017-08-01T07:48:07.188Z,1608
2017-08-01T07:49:07.261Z,1535
2017-08-01T07:50:07.192Z,1479
2017-08-01T07:51:07.253Z,1456
2017-08-01T07:52:07.263Z,1473
2017-08-01T07:53:07.194Z,1496
2017-08-01T07:54:07.280Z,1496
2017-08-01T07:55:07.196Z,1456
2017-08-01T07:56:07.289Z,1434
2017-08-01T07:57:07.291Z,1400
2017-08-01T07:58:07.220Z,1389
2017-08-01T07:59:07.284Z,1383
2017-08-01T08:00:07.258Z,1338
2017-08-01T08:01:07.222Z,1276
2017-08-01T08:02:07.199Z,1265
2017-08-01T08:03:07.198Z,1271
2017-08-01T08:04:07.290Z,1299
2017-08-01T08:05:07.269Z,1350
2017-08-01T08:06:07.220Z,1440
2017-08-01T08:07:07.254Z,1513
2017-08-01T08:08:07.268Z,1552
2017-08-01T08:09:07.261Z,1558
2017-08-01T08:10:07.232Z,1575
2017-08-01T08:11:07.206Z,1648
2017-08-01T08:12:07.237Z,1890
2017-08-01T08:13:07.199Z,1901
2017-08-01T08:14:07.289Z,1963
2017-08-01T08:15:07.271Z,1923
2017-08-01T08:16:07.227Z,1839
2017-08-01T08:17:07.293Z,1856
2017-08-01T08:18:07.232Z,1811
2017-08-01T08:19:07.296Z,1811
2017-08-01T08:20:07.292Z,1861
2017-08-01T08:21:07.261Z,1743
2017-08-01T08:22:07.212Z,1496
2017-08-01T08:23:07.237Z,1276
2017-08-01T08:24:07.307Z,1108
2017-08-01T08:25:07.250Z,961
2017-08-01T08:26:07.254Z,832
2017-08-01T08:27:07.265Z,725
2017-08-01T08:28:07.214Z,663
2017-08-01T08:29:07.245Z,675
2017-08-01T08:30:07.216Z,781
2017-08-01T08:31:07.213Z,945
2017-08-01T08:32:07.272Z,1125
2017-08-01T08:33:07.282Z,1260
2017-08-01T08:34:07.245Z,1305
2017-08-01T08:35:07.217Z,1321
2017-08-01T08:36:07.279Z,1282
2017-08-01T08:37:07.304Z,1231
2017-08-01T08:38:07.257Z,1198
2017-08-01T08:39:07.302Z,1147
2017-08-01T08:40:07.245Z,1051
2017-08-01T08:41:07.212Z,978
2017-08-01T08:42:07.250Z,894
2017-08-01T08:43:07.257Z,860
2017-08-01T08:44:07.317Z,855
2017-08-01T08:45:07.217Z,888
2017-08-01T08:46:07.223Z,945
2017-08-01T08:47:07.222Z,1023
2017-08-01T08:48:07.253Z,1074
2017-08-01T08:49:07.291Z,1130
2017-08-01T08:50:07.225Z,1170
2017-08-01T08:51:07.313Z,1085
2017-08-01T08:52:07.320Z,916
2017-08-01T08:53:07.260Z,798
2017-08-01T08:54:07.291Z,731
2017-08-01T08:55:07.228Z,675
2017-08-01T08:56:07.406Z,680
2017-08-01T08:57:07.260Z,697
2017-08-01T08:58:07.266Z,770
2017-08-01T08:59:07.286Z,843
2017-08-01T09:00:07.265Z,933
2017-08-01T09:01:07.229Z,995
2017-08-01T09:02:07.304Z,1001
2017-08-01T09:03:07.235Z,1001
2017-08-01T09:04:07.228Z,984
2017-08-01T09:06:07.255Z,1074
2017-08-01T09:07:07.287Z,1170
2017-08-01T09:08:07.328Z,1276
2017-08-01T09:09:07.234Z,1440
2017-08-01T09:10:07.324Z,1614
2017-08-01T09:11:07.269Z,1929
2017-08-01T09:12:07.234Z,2520
2017-08-01T09:13:07.294Z,2486
2017-08-01T09:14:07.239Z,2176
2017-08-01T09:15:07.268Z,2160
2017-08-01T09:16:07.297Z,1631
2017-08-01T09:17:07.254Z,1237
2017-08-01T09:18:07.253Z,961
2017-08-01T09:19:07.259Z,731
2017-08-01T09:20:07.243Z,568
2017-08-01T09:21:07.259Z,455
2017-08-01T09:22:07.263Z,382
2017-08-01T09:23:07.208Z,348
2017-08-01T09:24:07.287Z,343
2017-08-01T09:25:07.264Z,360
2017-08-01T09:26:07.283Z,399
2017-08-01T09:27:07.283Z,461
2017-08-01T09:28:07.322Z,556
2017-08-01T09:29:07.253Z,680
2017-08-01T09:30:07.318Z,793
2017-08-01T09:31:07.336Z,838
2017-08-01T09:32:07.244Z,866
2017-08-01T09:33:07.253Z,860
2017-08-01T09:34:07.254Z,832
2017-08-01T09:35:07.306Z,770
2017-08-01T09:36:07.254Z,742
2017-08-01T09:37:07.269Z,736
2017-08-01T09:38:07.223Z,748
2017-08-01T09:39:07.226Z,770
2017-08-01T09:40:07.276Z,776
2017-08-01T09:41:07.269Z,787
2017-08-01T09:42:07.265Z,776
2017-08-01T09:43:07.228Z,748
2017-08-01T09:44:07.284Z,798
2017-08-01T09:45:07.256Z,838
2017-08-01T09:46:07.351Z,871
2017-08-01T09:47:07.256Z,900
2017-08-01T09:48:07.328Z,928
2017-08-01T09:49:07.289Z,905
2017-08-01T09:50:07.286Z,866
2017-08-01T09:51:07.354Z,883
2017-08-01T09:52:07.264Z,945
2017-08-01T09:53:07.325Z,1018
2017-08-01T09:54:07.322Z,1080
2017-08-01T09:55:07.286Z,1074
2017-08-01T09:56:07.288Z,1046
2017-08-01T09:57:07.315Z,1063
2017-08-01T09:58:07.311Z,1091
2017-08-01T09:59:07.257Z,1113
2017-08-01T10:00:07.283Z,1091
2017-08-01T10:01:07.316Z,1136
2017-08-01T10:02:07.322Z,1243
2017-08-01T10:03:07.319Z,1383
2017-08-01T10:04:07.319Z,1344
2017-08-01T10:05:07.322Z,1288
2017-08-01T10:06:07.267Z,1260
2017-08-01T10:07:07.265Z,1260
2017-08-01T10:08:07.305Z,1254
2017-08-01T10:09:07.271Z,1237
2017-08-01T10:10:07.322Z,1276
2017-08-01T10:11:07.292Z,1305
2017-08-01T10:12:07.359Z,1395
2017-08-01T10:13:07.294Z,1490
2017-08-01T10:14:07.307Z,1518
2017-08-01T10:15:07.340Z,1546
2017-08-01T10:16:07.332Z,1563
2017-08-01T10:17:07.293Z,1715
2017-08-01T10:18:07.343Z,1895
2017-08-01T10:19:07.367Z,2092
2017-08-01T10:20:07.369Z,2289
2017-08-01T10:21:07.275Z,2486
2017-08-01T10:22:07.301Z,2328
2017-08-01T10:23:07.369Z,2103
2017-08-01T10:24:07.280Z,1940
2017-08-01T10:25:07.337Z,1805
2017-08-01T10:26:07.286Z,1794
2017-08-01T10:27:07.281Z,1856
2017-08-01T10:28:07.285Z,1935
2017-08-01T10:29:07.340Z,2064
2017-08-01T10:30:07.285Z,2199
2017-08-01T10:31:07.355Z,2323
2017-08-01T10:32:07.378Z,2446
2017-08-01T10:33:07.287Z,2604
2017-08-01T10:34:07.347Z,2812
2017-08-01T10:35:07.317Z,2733
2017-08-01T10:36:07.344Z,2728
2017-08-01T10:37:07.340Z,2761
2017-08-01T10:38:07.275Z,2829
2017-08-01T10:39:07.342Z,2705
2017-08-01T10:40:07.309Z,2289
2017-08-01T10:41:07.344Z,2098
2017-08-01T10:42:07.346Z,2126
2017-08-01T10:43:07.281Z,3065
2017-08-01T10:44:07.340Z,3549
2017-08-01T10:45:07.285Z,5017
2017-08-01T10:46:07.340Z,6114
2017-08-01T10:47:07.313Z,5861
2017-08-01T10:48:07.350Z,4685
2017-08-01T10:49:07.286Z,4511
2017-08-01T10:50:07.280Z,3560
2017-08-01T10:51:07.343Z,3380
2017-08-01T10:52:07.317Z,3791
2017-08-01T10:53:07.316Z,3594
2017-08-01T10:54:07.282Z,3200
2017-08-01T10:55:07.347Z,3363
2017-08-01T10:56:07.328Z,2801
2017-08-01T10:57:07.392Z,2773
2017-08-01T10:58:07.294Z,3099
2017-08-01T10:59:07.298Z,3240
2017-08-01T11:00:07.383Z,3121
2017-08-01T11:01:07.326Z,3971
2017-08-01T11:02:07.357Z,3808
2017-08-01T11:03:07.375Z,4246
2017-08-01T11:04:07.394Z,3960
2017-08-01T11:05:07.301Z,3521
2017-08-01T11:06:07.326Z,3431
2017-08-01T11:07:07.309Z,3240
2017-08-01T11:08:07.322Z,3251
2017-08-01T11:09:07.399Z,3172
2017-08-01T11:10:07.398Z,2829
2017-08-01T11:11:07.342Z,2874
2017-08-01T11:12:07.399Z,5461
2017-08-01T11:13:07.308Z,6249
2017-08-01T11:14:07.390Z,6052
2017-08-01T11:15:07.368Z,5911
2017-08-01T11:16:07.310Z,5771
2017-08-01T11:17:07.366Z,5456
2017-08-01T11:18:07.373Z,4601
2017-08-01T11:19:07.316Z,4095
2017-08-01T11:20:07.403Z,4179
2017-08-01T11:21:07.310Z,5096
2017-08-01T11:22:07.385Z,4747
2017-08-01T11:23:07.372Z,4747
2017-08-01T11:24:07.386Z,3763
2017-08-01T11:25:07.335Z,4263
2017-08-01T11:26:07.379Z,3515
2017-08-01T11:27:07.407Z,3526
2017-08-01T11:28:07.380Z,3819
2017-08-01T11:29:07.351Z,4511
2017-08-01T11:30:07.319Z,4145
2017-08-01T11:31:07.338Z,3403
2017-08-01T11:32:07.345Z,4145
2017-08-01T11:33:07.344Z,3948
2017-08-01T11:34:07.317Z,3881
2017-08-01T11:35:07.321Z,3403
2017-08-01T11:36:07.414Z,4100
2017-08-01T11:37:07.354Z,4668
2017-08-01T11:38:07.411Z,6024
2017-08-01T11:39:07.348Z,6513
2017-08-01T11:40:07.343Z,5990
2017-08-01T11:41:07.378Z,6007
2017-08-01T11:42:07.397Z,5737
2017-08-01T11:43:07.347Z,5934
2017-08-01T11:44:07.419Z,5799
2017-08-01T11:45:07.328Z,5833
2017-08-01T11:46:07.377Z,5326
2017-08-01T11:47:07.386Z,4961
2017-08-01T11:48:07.419Z,5450
2017-08-01T11:49:07.395Z,5878
2017-08-01T11:50:07.390Z,5214
2017-08-01T11:51:07.361Z,3234
2017-08-01T11:52:07.328Z,5692
2017-08-01T11:53:07.446Z,4927
2017-08-01T11:54:07.350Z,3251
2017-08-01T11:55:07.382Z,2638
2017-08-01T11:56:07.385Z,2525
2017-08-01T11:57:07.409Z,2857
2017-08-01T11:58:07.368Z,5737
2017-08-01T11:59:07.405Z,3898
2017-08-01T12:00:07.337Z,6547
2017-08-01T12:01:07.366Z,2711
2017-08-01T12:02:07.393Z,3751
2017-08-01T12:03:07.430Z,5653
2017-08-01T12:04:07.401Z,7048
2017-08-01T12:05:07.335Z,5996
2017-08-01T12:06:07.397Z,5872
2017-08-01T12:07:07.342Z,6688
2017-08-01T12:08:07.397Z,6592
2017-08-01T12:09:07.337Z,6131
2017-08-01T12:10:07.368Z,6699
2017-08-01T12:11:07.346Z,2986
2017-08-01T12:12:07.426Z,3290
2017-08-01T12:13:07.394Z,3532
2017-08-01T12:14:07.404Z,3403
2017-08-01T12:15:07.350Z,3571
2017-08-01T12:16:07.364Z,4404
2017-08-01T12:17:07.394Z,2131
2017-08-01T12:18:07.333Z,1957
2017-08-01T12:19:07.368Z,2520
2017-08-01T12:20:07.363Z,2266
2017-08-01T12:21:07.366Z,1991
2017-08-01T12:22:07.398Z,2070
2017-08-01T12:23:07.408Z,2615
2017-08-01T12:24:07.373Z,2587
2017-08-01T12:25:07.339Z,2520
2017-08-01T12:26:07.349Z,2351
2017-08-01T12:27:07.364Z,2469
2017-08-01T12:28:07.364Z,2469
2017-08-01T12:29:07.360Z,2452
2017-08-01T12:30:07.343Z,2458
2017-08-01T12:31:07.286Z,2671
2017-08-01T12:32:07.366Z,2503
2017-08-01T12:33:07.365Z,2182
2017-08-01T12:34:07.487Z,1890
2017-08-01T12:35:07.372Z,1698
2017-08-01T12:36:07.444Z,1816
2017-08-01T12:37:07.381Z,1845
2017-08-01T12:38:07.363Z,1777
2017-08-01T12:39:07.384Z,1642
2017-08-01T12:40:07.392Z,1378
2017-08-01T12:41:07.360Z,1130
2017-08-01T12:42:07.353Z,1018
2017-08-01T12:43:07.451Z,1001
2017-08-01T12:44:07.390Z,945
2017-08-01T12:45:07.433Z,855
2017-08-01T12:46:07.486Z,736
2017-08-01T12:47:07.396Z,652
2017-08-01T12:48:07.437Z,607
2017-08-01T12:49:07.450Z,618
2017-08-01T12:50:07.458Z,680
2017-08-01T12:51:07.402Z,826
2017-08-01T12:52:07.424Z,973
2017-08-01T12:53:07.393Z,990
2017-08-01T12:54:07.402Z,939
2017-08-01T12:55:07.368Z,995
2017-08-01T12:56:07.455Z,1136
2017-08-01T12:57:07.418Z,1091
2017-08-01T12:58:07.464Z,1119
2017-08-01T12:59:07.367Z,1181
2017-08-01T13:00:07.399Z,1164
2017-08-01T13:01:07.404Z,1119
2017-08-01T13:02:07.430Z,933
2017-08-01T13:03:07.433Z,714
2017-08-01T13:04:07.464Z,551
2017-08-01T13:05:07.428Z,433
2017-08-01T13:06:07.371Z,315
2017-08-01T13:07:07.443Z,264
2017-08-01T13:08:07.379Z,360
2017-08-01T13:09:07.398Z,551
2017-08-01T13:10:07.466Z,658
2017-08-01T13:11:07.409Z,765
2017-08-01T13:12:07.435Z,1096
2017-08-01T13:13:07.463Z,1749
2017-08-01T13:14:07.440Z,2446
2017-08-01T13:15:07.446Z,2559
2017-08-01T13:16:07.402Z,2413
2017-08-01T13:17:07.370Z,2115
2017-08-01T13:18:07.444Z,1968
2017-08-01T13:19:07.375Z,2008
2017-08-01T13:20:07.369Z,1968
2017-08-01T13:21:07.432Z,1923
2017-08-01T13:22:07.407Z,1816
2017-08-01T13:23:07.371Z,1687
2017-08-01T13:24:07.447Z,1507
2017-08-01T13:25:07.405Z,1389
2017-08-01T13:26:07.406Z,1383
2017-08-01T13:27:07.417Z,1327
2017-08-01T13:28:07.444Z,1153
2017-08-01T13:29:07.437Z,973
2017-08-01T13:30:07.451Z,832
2017-08-01T13:31:07.442Z,748
2017-08-01T13:32:07.479Z,686
2017-08-01T13:33:07.393Z,697
2017-08-01T13:34:07.426Z,742
2017-08-01T13:35:07.451Z,821
2017-08-01T13:36:07.488Z,961
2017-08-01T13:37:07.423Z,1220
2017-08-01T13:38:07.388Z,1681
2017-08-01T13:39:07.520Z,2334
2017-08-01T13:40:07.391Z,3318
2017-08-01T13:41:07.429Z,5664
2017-08-01T13:42:07.447Z,6637
2017-08-01T13:43:07.460Z,5613
2017-08-01T13:44:07.399Z,5118
2017-08-01T13:45:07.457Z,4781
2017-08-01T13:46:07.391Z,4674
2017-08-01T13:47:07.453Z,3751
2017-08-01T13:48:07.403Z,3020
2017-08-01T13:49:07.399Z,3234
2017-08-01T13:50:07.460Z,3234
2017-08-01T13:51:07.453Z,2666
2017-08-01T13:52:07.422Z,2829